sensor_id;sensor_type;location;lat;lon;timestamp;pressure;altitude;pressure_sealevel;temperature;humidity
40171;BME280;37650;52.790;18.268;2023-04-06T00:00:11;101261.73;;;-1.06;77.03
40171;BME280;37650;52.790;18.268;2023-04-06T00:03:48;101265.67;;;-1.08;77.35
40171;BME280;37650;52.790;18.268;2023-04-06T00:07:10;101263.86;;;-1.11;77.41
40171;BME280;37650;52.790;18.268;2023-04-06T00:10:31;101259.09;;;-1.17;77.44
40171;BME280;37650;52.790;18.268;2023-04-06T00:13:52;101257.25;;;-1.21;77.19
40171;BME280;37650;52.790;18.268;2023-04-06T00:17:13;101260.73;;;-1.26;77.80
40171;BME280;37650;52.790;18.268;2023-04-06T00:20:35;101258.73;;;-1.31;77.70
40171;BME280;37650;52.790;18.268;2023-04-06T00:23:56;101259.14;;;-1.36;77.90
40171;BME280;37650;52.790;18.268;2023-04-06T00:27:17;101256.92;;;-1.42;78.05
40171;BME280;37650;52.790;18.268;2023-04-06T00:30:38;101258.66;;;-1.48;78.34
40171;BME280;37650;52.790;18.268;2023-04-06T00:34:00;101257.37;;;-1.51;78.60
40171;BME280;37650;52.790;18.268;2023-04-06T00:37:22;101258.11;;;-1.55;78.75
40171;BME280;37650;52.790;18.268;2023-04-06T00:40:43;101257.27;;;-1.61;79.00
40171;BME280;37650;52.790;18.268;2023-04-06T00:44:05;101256.84;;;-1.64;79.22
40171;BME280;37650;52.790;18.268;2023-04-06T00:47:27;101256.92;;;-1.68;79.59
40171;BME280;37650;52.790;18.268;2023-04-06T00:50:48;101256.98;;;-1.72;79.57
40171;BME280;37650;52.790;18.268;2023-04-06T00:54:09;101258.30;;;-1.74;80.28
40171;BME280;37650;52.790;18.268;2023-04-06T00:57:31;101255.02;;;-1.75;80.88
40171;BME280;37650;52.790;18.268;2023-04-06T01:00:52;101257.29;;;-1.73;81.43
40171;BME280;37650;52.790;18.268;2023-04-06T01:04:15;101253.98;;;-1.75;81.56
40171;BME280;37650;52.790;18.268;2023-04-06T01:07:37;101256.62;;;-1.79;81.26
40171;BME280;37650;52.790;18.268;2023-04-06T01:11:07;101250.48;;;-1.77;81.87
40171;BME280;37650;52.790;18.268;2023-04-06T01:14:29;101250.48;;;-1.78;81.51
40171;BME280;37650;52.790;18.268;2023-04-06T01:17:53;101249.60;;;-1.72;82.12
40171;BME280;37650;52.790;18.268;2023-04-06T01:21:15;101252.73;;;-1.63;82.28
40171;BME280;37650;52.790;18.268;2023-04-06T01:24:43;101250.19;;;-1.56;82.34
40171;BME280;37650;52.790;18.268;2023-04-06T01:28:16;101246.83;;;-1.52;82.40
40171;BME280;37650;52.790;18.268;2023-04-06T01:32:00;101243.95;;;-1.51;82.49
40171;BME280;37650;52.790;18.268;2023-04-06T01:35:21;101246.41;;;-1.55;82.34
40171;BME280;37650;52.790;18.268;2023-04-06T01:38:51;101247.20;;;-1.58;82.65
40171;BME280;37650;52.790;18.268;2023-04-06T01:42:14;101242.48;;;-1.61;82.68
40171;BME280;37650;52.790;18.268;2023-04-06T01:45:35;101243.75;;;-1.64;83.12
40171;BME280;37650;52.790;18.268;2023-04-06T01:49:05;101245.16;;;-1.70;83.38
40171;BME280;37650;52.790;18.268;2023-04-06T01:52:30;101244.07;;;-1.79;83.40
40171;BME280;37650;52.790;18.268;2023-04-06T01:55:52;101248.45;;;-1.88;83.29
40171;BME280;37650;52.790;18.268;2023-04-06T01:59:20;101244.39;;;-1.92;83.45
40171;BME280;37650;52.790;18.268;2023-04-06T02:02:41;101247.92;;;-1.95;84.00
40171;BME280;37650;52.790;18.268;2023-04-06T02:06:07;101244.20;;;-1.99;84.23
40171;BME280;37650;52.790;18.268;2023-04-06T02:09:31;101248.48;;;-2.05;84.32
40171;BME280;37650;52.790;18.268;2023-04-06T02:12:52;101244.77;;;-2.04;84.98
40171;BME280;37650;52.790;18.268;2023-04-06T02:16:18;101241.52;;;-2.03;84.61
40171;BME280;37650;52.790;18.268;2023-04-06T02:19:39;101240.94;;;-1.99;84.88
40171;BME280;37650;52.790;18.268;2023-04-06T02:23:01;101246.05;;;-1.95;84.97
40171;BME280;37650;52.790;18.268;2023-04-06T02:26:22;101243.73;;;-1.91;85.02
40171;BME280;37650;52.790;18.268;2023-04-06T02:29:43;101244.05;;;-1.86;85.39
40171;BME280;37650;52.790;18.268;2023-04-06T02:33:04;101244.16;;;-1.82;85.68
40171;BME280;37650;52.790;18.268;2023-04-06T02:36:33;101249.80;;;-1.77;85.63
40171;BME280;37650;52.790;18.268;2023-04-06T02:39:54;101251.95;;;-1.73;85.86
40171;BME280;37650;52.790;18.268;2023-04-06T02:43:16;101251.17;;;-1.70;85.65
40171;BME280;37650;52.790;18.268;2023-04-06T02:46:38;101250.45;;;-1.64;86.06
40171;BME280;37650;52.790;18.268;2023-04-06T02:49:59;101251.59;;;-1.61;85.85
40171;BME280;37650;52.790;18.268;2023-04-06T02:53:21;101253.02;;;-1.59;85.57
40171;BME280;37650;52.790;18.268;2023-04-06T02:56:43;101256.44;;;-1.53;85.95
40171;BME280;37650;52.790;18.268;2023-04-06T03:00:04;101261.88;;;-1.50;85.94
40171;BME280;37650;52.790;18.268;2023-04-06T03:03:31;101259.48;;;-1.48;86.14
40171;BME280;37650;52.790;18.268;2023-04-06T03:06:54;101262.02;;;-1.43;86.11
40171;BME280;37650;52.790;18.268;2023-04-06T03:10:25;101258.02;;;-1.38;85.91
40171;BME280;37650;52.790;18.268;2023-04-06T03:13:47;101257.30;;;-1.33;85.48
40171;BME280;37650;52.790;18.268;2023-04-06T03:17:08;101253.60;;;-1.23;85.72
40171;BME280;37650;52.790;18.268;2023-04-06T03:20:30;101255.20;;;-1.14;85.45
40171;BME280;37650;52.790;18.268;2023-04-06T03:23:51;101256.77;;;-1.05;85.51
40171;BME280;37650;52.790;18.268;2023-04-06T03:27:12;101254.67;;;-0.99;85.60
40171;BME280;37650;52.790;18.268;2023-04-06T03:30:34;101255.95;;;-0.96;85.58
40171;BME280;37650;52.790;18.268;2023-04-06T03:33:55;101255.70;;;-0.93;85.16
40171;BME280;37650;52.790;18.268;2023-04-06T03:37:20;101257.98;;;-0.91;85.15
40171;BME280;37650;52.790;18.268;2023-04-06T03:40:45;101254.36;;;-0.92;85.17
40171;BME280;37650;52.790;18.268;2023-04-06T03:44:06;101254.88;;;-0.91;85.46
40171;BME280;37650;52.790;18.268;2023-04-06T03:47:27;101259.86;;;-0.91;85.21
40171;BME280;37650;52.790;18.268;2023-04-06T03:50:51;101261.08;;;-0.91;85.23
40171;BME280;37650;52.790;18.268;2023-04-06T03:54:13;101265.22;;;-0.91;85.29
40171;BME280;37650;52.790;18.268;2023-04-06T03:57:34;101270.55;;;-0.91;85.20
40171;BME280;37650;52.790;18.268;2023-04-06T04:00:55;101271.77;;;-0.91;85.30
40171;BME280;37650;52.790;18.268;2023-04-06T04:04:16;101277.45;;;-0.90;85.18
40171;BME280;37650;52.790;18.268;2023-04-06T04:07:37;101275.23;;;-0.90;85.55
40171;BME280;37650;52.790;18.268;2023-04-06T04:10:59;101272.73;;;-0.87;85.49
40171;BME280;37650;52.790;18.268;2023-04-06T04:14:20;101274.77;;;-0.80;85.32
40171;BME280;37650;52.790;18.268;2023-04-06T04:17:41;101279.42;;;-0.72;85.09
40171;BME280;37650;52.790;18.268;2023-04-06T04:21:07;101278.95;;;-0.64;85.01
40171;BME280;37650;52.790;18.268;2023-04-06T04:24:28;101275.14;;;-0.57;84.83
40171;BME280;37650;52.790;18.268;2023-04-06T04:27:50;101273.19;;;-0.51;84.67
40171;BME280;37650;52.790;18.268;2023-04-06T04:31:14;101272.28;;;-0.46;84.52
40171;BME280;37650;52.790;18.268;2023-04-06T04:34:35;101272.86;;;-0.42;84.27
40171;BME280;37650;52.790;18.268;2023-04-06T04:37:56;101272.20;;;-0.41;84.54
40171;BME280;37650;52.790;18.268;2023-04-06T04:41:18;101273.98;;;-0.38;84.28
40171;BME280;37650;52.790;18.268;2023-04-06T04:44:40;101271.09;;;-0.36;84.18
40171;BME280;37650;52.790;18.268;2023-04-06T04:48:01;101272.16;;;-0.35;84.25
40171;BME280;37650;52.790;18.268;2023-04-06T04:51:27;101275.48;;;-0.32;84.25
40171;BME280;37650;52.790;18.268;2023-04-06T04:55:02;101283.25;;;-0.32;84.20
40171;BME280;37650;52.790;18.268;2023-04-06T04:58:23;101284.89;;;-0.28;84.06
40171;BME280;37650;52.790;18.268;2023-04-06T05:01:50;101279.14;;;-0.23;83.62
40171;BME280;37650;52.790;18.268;2023-04-06T05:05:11;101278.25;;;-0.16;83.35
40171;BME280;37650;52.790;18.268;2023-04-06T05:08:33;101280.97;;;-0.10;83.16
40171;BME280;37650;52.790;18.268;2023-04-06T05:11:55;101282.11;;;-0.04;82.96
40171;BME280;37650;52.790;18.268;2023-04-06T05:15:16;101284.23;;;-0.02;82.69
40171;BME280;37650;52.790;18.268;2023-04-06T05:18:37;101286.30;;;0.07;82.60
40171;BME280;37650;52.790;18.268;2023-04-06T05:22:02;101287.16;;;0.16;82.21
40171;BME280;37650;52.790;18.268;2023-04-06T05:25:25;101294.82;;;0.27;82.41
40171;BME280;37650;52.790;18.268;2023-04-06T05:28:48;101297.34;;;0.33;81.11
40171;BME280;37650;52.790;18.268;2023-04-06T05:32:10;101297.16;;;0.41;81.35
40171;BME280;37650;52.790;18.268;2023-04-06T05:35:32;101299.99;;;0.45;80.92
40171;BME280;37650;52.790;18.268;2023-04-06T05:38:55;101298.70;;;0.50;80.34
40171;BME280;37650;52.790;18.268;2023-04-06T05:42:26;101294.98;;;0.55;79.53
40171;BME280;37650;52.790;18.268;2023-04-06T05:45:50;101290.45;;;0.62;79.85
40171;BME280;37650;52.790;18.268;2023-04-06T05:49:12;101288.42;;;0.74;79.62
40171;BME280;37650;52.790;18.268;2023-04-06T05:52:33;101290.08;;;0.79;79.23
40171;BME280;37650;52.790;18.268;2023-04-06T05:55:55;101289.67;;;0.87;79.07
40171;BME280;37650;52.790;18.268;2023-04-06T05:59:17;101287.04;;;0.94;79.07
40171;BME280;37650;52.790;18.268;2023-04-06T06:02:38;101289.74;;;1.01;78.89
40171;BME280;37650;52.790;18.268;2023-04-06T06:06:02;101293.81;;;1.07;78.57
40171;BME280;37650;52.790;18.268;2023-04-06T06:09:30;101290.10;;;1.12;77.96
40171;BME280;37650;52.790;18.268;2023-04-06T06:13:02;101294.17;;;1.19;77.45
40171;BME280;37650;52.790;18.268;2023-04-06T06:16:23;101292.91;;;1.26;77.23
40171;BME280;37650;52.790;18.268;2023-04-06T06:19:44;101293.56;;;1.36;77.15
40171;BME280;37650;52.790;18.268;2023-04-06T06:23:06;101291.98;;;1.45;76.92
40171;BME280;37650;52.790;18.268;2023-04-06T06:26:27;101284.73;;;1.58;76.82
40171;BME280;37650;52.790;18.268;2023-04-06T06:29:49;101291.83;;;1.72;76.63
40171;BME280;37650;52.790;18.268;2023-04-06T06:33:12;101289.23;;;1.85;76.34
40171;BME280;37650;52.790;18.268;2023-04-06T06:36:33;101289.92;;;1.99;76.01
40171;BME280;37650;52.790;18.268;2023-04-06T06:39:57;101288.53;;;2.12;75.59
40171;BME280;37650;52.790;18.268;2023-04-06T06:43:18;101285.04;;;2.25;75.08
40171;BME280;37650;52.790;18.268;2023-04-06T06:46:47;101283.13;;;2.39;74.77
40171;BME280;37650;52.790;18.268;2023-04-06T06:50:08;101278.27;;;2.56;74.48
40171;BME280;37650;52.790;18.268;2023-04-06T06:53:29;101275.33;;;2.75;74.10
40171;BME280;37650;52.790;18.268;2023-04-06T06:56:50;101276.31;;;2.87;73.22
40171;BME280;37650;52.790;18.268;2023-04-06T07:00:12;101272.58;;;2.97;72.81
40171;BME280;37650;52.790;18.268;2023-04-06T07:03:35;101272.85;;;3.09;72.28
40171;BME280;37650;52.790;18.268;2023-04-06T07:06:56;101279.33;;;3.18;71.57
40171;BME280;37650;52.790;18.268;2023-04-06T07:10:17;101275.04;;;3.26;70.91
40171;BME280;37650;52.790;18.268;2023-04-06T07:13:38;101275.09;;;3.33;70.32
40171;BME280;37650;52.790;18.268;2023-04-06T07:17:00;101276.03;;;3.43;70.10
40171;BME280;37650;52.790;18.268;2023-04-06T07:20:21;101275.42;;;3.55;69.26
40171;BME280;37650;52.790;18.268;2023-04-06T07:23:42;101274.27;;;3.67;69.02
40171;BME280;37650;52.790;18.268;2023-04-06T07:27:03;101270.36;;;3.87;68.57
40171;BME280;37650;52.790;18.268;2023-04-06T07:30:25;101269.25;;;4.13;68.19
40171;BME280;37650;52.790;18.268;2023-04-06T07:33:48;101275.75;;;4.39;67.26
40171;BME280;37650;52.790;18.268;2023-04-06T07:37:11;101267.80;;;4.66;66.43
40171;BME280;37650;52.790;18.268;2023-04-06T07:40:32;101258.60;;;4.99;65.55
40171;BME280;37650;52.790;18.268;2023-04-06T07:43:53;101253.35;;;5.37;64.95
40171;BME280;37650;52.790;18.268;2023-04-06T07:47:15;101254.30;;;5.68;63.75
40171;BME280;37650;52.790;18.268;2023-04-06T07:50:37;101252.92;;;6.17;63.39
40171;BME280;37650;52.790;18.268;2023-04-06T07:53:59;101251.52;;;6.49;61.92
40171;BME280;37650;52.790;18.268;2023-04-06T07:57:20;101253.13;;;6.69;61.12
40171;BME280;37650;52.790;18.268;2023-04-06T08:00:41;101254.56;;;6.86;60.47
40171;BME280;37650;52.790;18.268;2023-04-06T08:04:02;101255.27;;;7.03;59.23
40171;BME280;37650;52.790;18.268;2023-04-06T08:07:23;101259.11;;;7.03;57.89
40171;BME280;37650;52.790;18.268;2023-04-06T08:10:49;101259.06;;;6.68;56.13
40171;BME280;37650;52.790;18.268;2023-04-06T08:14:11;101259.45;;;6.33;55.35
40171;BME280;37650;52.790;18.268;2023-04-06T08:17:32;101256.21;;;6.20;55.70
40171;BME280;37650;52.790;18.268;2023-04-06T08:20:54;101258.76;;;6.35;55.20
40171;BME280;37650;52.790;18.268;2023-04-06T08:24:16;101257.55;;;6.31;54.05
40171;BME280;37650;52.790;18.268;2023-04-06T08:27:37;101254.38;;;6.38;54.31
40171;BME280;37650;52.790;18.268;2023-04-06T08:30:58;101256.40;;;6.47;53.84
40171;BME280;37650;52.790;18.268;2023-04-06T08:34:20;101251.41;;;6.39;53.89
40171;BME280;37650;52.790;18.268;2023-04-06T08:37:41;101256.70;;;6.27;54.06
40171;BME280;37650;52.790;18.268;2023-04-06T08:41:10;101254.38;;;6.38;54.50
40171;BME280;37650;52.790;18.268;2023-04-06T08:44:32;101252.13;;;6.34;53.95
40171;BME280;37650;52.790;18.268;2023-04-06T08:47:54;101252.16;;;6.28;54.01
40171;BME280;37650;52.790;18.268;2023-04-06T08:51:18;101253.92;;;6.26;54.26
40171;BME280;37650;52.790;18.268;2023-04-06T08:54:39;101259.48;;;6.27;54.24
40171;BME280;37650;52.790;18.268;2023-04-06T08:58:01;101253.69;;;6.37;54.09
40171;BME280;37650;52.790;18.268;2023-04-06T09:01:26;101252.71;;;6.23;53.39
40171;BME280;37650;52.790;18.268;2023-04-06T09:04:53;101249.44;;;6.18;53.66
40171;BME280;37650;52.790;18.268;2023-04-06T09:08:14;101250.48;;;6.17;53.32
40171;BME280;37650;52.790;18.268;2023-04-06T09:12:01;101252.79;;;6.10;53.23
40171;BME280;37650;52.790;18.268;2023-04-06T09:15:26;101242.66;;;6.14;53.07
40171;BME280;37650;52.790;18.268;2023-04-06T09:19:09;101245.83;;;6.40;52.64
40171;BME280;37650;52.790;18.268;2023-04-06T09:22:37;101248.08;;;6.68;52.55
40171;BME280;37650;52.790;18.268;2023-04-06T09:26:09;101242.16;;;7.07;52.41
40171;BME280;37650;52.790;18.268;2023-04-06T09:29:31;101241.77;;;7.31;51.81
40171;BME280;37650;52.790;18.268;2023-04-06T09:32:56;101239.84;;;7.48;51.88
40171;BME280;37650;52.790;18.268;2023-04-06T09:36:33;101243.40;;;7.59;51.32
40171;BME280;37650;52.790;18.268;2023-04-06T09:40:02;101237.02;;;7.67;50.95
40171;BME280;37650;52.790;18.268;2023-04-06T09:43:27;101236.28;;;7.70;50.86
40171;BME280;37650;52.790;18.268;2023-04-06T09:46:48;101226.31;;;7.85;50.16
40171;BME280;37650;52.790;18.268;2023-04-06T09:50:11;101223.67;;;7.72;49.65
40171;BME280;37650;52.790;18.268;2023-04-06T09:53:35;101224.33;;;7.77;50.18
40171;BME280;37650;52.790;18.268;2023-04-06T09:57:07;101229.03;;;7.91;49.91
40171;BME280;37650;52.790;18.268;2023-04-06T10:00:32;101219.34;;;8.91;49.46
40171;BME280;37650;52.790;18.268;2023-04-06T10:07:22;101211.50;;;11.57;46.85
40171;BME280;37650;52.790;18.268;2023-04-06T10:10:43;101210.98;;;12.11;45.09
40171;BME280;37650;52.790;18.268;2023-04-06T10:14:06;101198.66;;;12.67;44.99
40171;BME280;37650;52.790;18.268;2023-04-06T10:17:34;101191.90;;;13.06;42.62
40171;BME280;37650;52.790;18.268;2023-04-06T10:20:57;101182.33;;;13.76;42.90
40171;BME280;37650;52.790;18.268;2023-04-06T10:24:21;101182.92;;;14.21;39.75
40171;BME280;37650;52.790;18.268;2023-04-06T10:27:43;101183.38;;;15.00;40.32
40171;BME280;37650;52.790;18.268;2023-04-06T10:31:05;101183.77;;;15.95;38.11
40171;BME280;37650;52.790;18.268;2023-04-06T10:34:34;101178.58;;;15.33;37.26
40171;BME280;37650;52.790;18.268;2023-04-06T10:38:04;101173.68;;;15.16;36.33
40171;BME280;37650;52.790;18.268;2023-04-06T10:41:41;101173.14;;;15.64;36.76
40171;BME280;37650;52.790;18.268;2023-04-06T10:45:06;101165.60;;;15.35;35.87
40171;BME280;37650;52.790;18.268;2023-04-06T10:48:44;101164.16;;;15.94;34.87
40171;BME280;37650;52.790;18.268;2023-04-06T10:52:08;101154.63;;;16.53;33.24
40171;BME280;37650;52.790;18.268;2023-04-06T10:55:30;101143.80;;;16.57;33.15
40171;BME280;37650;52.790;18.268;2023-04-06T10:58:53;101142.95;;;17.28;33.04
40171;BME280;37650;52.790;18.268;2023-04-06T11:02:19;101129.36;;;17.93;32.26
40171;BME280;37650;52.790;18.268;2023-04-06T11:05:47;101130.24;;;18.24;31.26
40171;BME280;37650;52.790;18.268;2023-04-06T11:09:08;101135.77;;;18.08;30.97
40171;BME280;37650;52.790;18.268;2023-04-06T11:12:29;101133.23;;;17.21;31.74
40171;BME280;37650;52.790;18.268;2023-04-06T11:15:51;101137.94;;;17.59;31.31
40171;BME280;37650;52.790;18.268;2023-04-06T11:19:12;101126.38;;;18.05;31.13
40171;BME280;37650;52.790;18.268;2023-04-06T11:22:34;101120.34;;;18.33;30.56
40171;BME280;37650;52.790;18.268;2023-04-06T11:25:54;101120.70;;;18.51;30.04
40171;BME280;37650;52.790;18.268;2023-04-06T11:29:17;101108.81;;;18.17;29.60
40171;BME280;37650;52.790;18.268;2023-04-06T11:32:44;101106.70;;;18.10;29.66
40171;BME280;37650;52.790;18.268;2023-04-06T11:36:07;101111.46;;;17.76;29.45
40171;BME280;37650;52.790;18.268;2023-04-06T11:39:29;101102.82;;;16.54;30.06
40171;BME280;37650;52.790;18.268;2023-04-06T11:42:54;101106.60;;;15.58;31.26
40171;BME280;37650;52.790;18.268;2023-04-06T11:46:18;101099.67;;;15.38;32.06
40171;BME280;37650;52.790;18.268;2023-04-06T11:49:43;101100.84;;;15.05;32.46
40171;BME280;37650;52.790;18.268;2023-04-06T11:53:05;101093.06;;;14.22;32.88
40171;BME280;37650;52.790;18.268;2023-04-06T11:56:29;101093.39;;;14.05;33.95
40171;BME280;37650;52.790;18.268;2023-04-06T11:59:51;101086.00;;;14.31;34.05
40171;BME280;37650;52.790;18.268;2023-04-06T12:03:13;101085.31;;;14.26;33.87
40171;BME280;37650;52.790;18.268;2023-04-06T12:06:35;101083.98;;;13.80;34.03
40171;BME280;37650;52.790;18.268;2023-04-06T12:09:59;101084.56;;;13.78;34.08
40171;BME280;37650;52.790;18.268;2023-04-06T12:13:20;101082.35;;;13.68;34.31
40171;BME280;37650;52.790;18.268;2023-04-06T12:16:41;101078.92;;;13.87;34.92
40171;BME280;37650;52.790;18.268;2023-04-06T12:20:03;101078.32;;;14.07;34.51
40171;BME280;37650;52.790;18.268;2023-04-06T12:23:25;101067.68;;;14.13;34.80
40171;BME280;37650;52.790;18.268;2023-04-06T12:26:46;101068.04;;;14.12;34.60
40171;BME280;37650;52.790;18.268;2023-04-06T12:30:08;101065.46;;;14.02;34.60
40171;BME280;37650;52.790;18.268;2023-04-06T12:33:29;101065.23;;;13.94;34.99
40171;BME280;37650;52.790;18.268;2023-04-06T12:36:50;101066.92;;;14.10;35.16
40171;BME280;37650;52.790;18.268;2023-04-06T12:40:11;101057.83;;;14.16;35.07
40171;BME280;37650;52.790;18.268;2023-04-06T12:43:33;101060.02;;;14.18;35.04
40171;BME280;37650;52.790;18.268;2023-04-06T12:46:54;101054.22;;;14.14;34.55
40171;BME280;37650;52.790;18.268;2023-04-06T12:50:17;101051.58;;;14.09;34.44
40171;BME280;37650;52.790;18.268;2023-04-06T12:53:41;101049.32;;;13.82;34.49
40171;BME280;37650;52.790;18.268;2023-04-06T12:57:03;101044.43;;;13.81;34.73
40171;BME280;37650;52.790;18.268;2023-04-06T13:00:24;101038.73;;;13.60;34.45
40171;BME280;37650;52.790;18.268;2023-04-06T13:03:45;101032.84;;;13.49;34.99
40171;BME280;37650;52.790;18.268;2023-04-06T13:07:07;101027.90;;;13.44;35.01
40171;BME280;37650;52.790;18.268;2023-04-06T13:10:28;101023.08;;;13.46;35.05
40171;BME280;37650;52.790;18.268;2023-04-06T13:13:49;101017.30;;;13.50;34.92
40171;BME280;37650;52.790;18.268;2023-04-06T13:17:11;101013.09;;;13.62;35.24
40171;BME280;37650;52.790;18.268;2023-04-06T13:20:33;101004.73;;;13.65;35.06
40171;BME280;37650;52.790;18.268;2023-04-06T13:23:54;101001.84;;;13.57;35.20
40171;BME280;37650;52.790;18.268;2023-04-06T13:27:17;100999.73;;;13.57;35.24
40171;BME280;37650;52.790;18.268;2023-04-06T13:30:39;100998.71;;;13.69;35.67
40171;BME280;37650;52.790;18.268;2023-04-06T13:34:00;101001.05;;;13.81;35.53
40171;BME280;37650;52.790;18.268;2023-04-06T13:37:20;101002.17;;;13.71;35.27
40171;BME280;37650;52.790;18.268;2023-04-06T13:40:42;101000.90;;;13.59;35.06
40171;BME280;37650;52.790;18.268;2023-04-06T13:44:03;100993.23;;;13.25;34.90
40171;BME280;37650;52.790;18.268;2023-04-06T13:47:24;100996.08;;;12.67;35.65
40171;BME280;37650;52.790;18.268;2023-04-06T13:50:48;100996.07;;;12.27;36.36
40171;BME280;37650;52.790;18.268;2023-04-06T13:54:11;100991.62;;;11.98;36.94
40171;BME280;37650;52.790;18.268;2023-04-06T13:57:33;100992.17;;;11.69;37.50
40171;BME280;37650;52.790;18.268;2023-04-06T14:00:55;100989.16;;;11.47;37.94
40171;BME280;37650;52.790;18.268;2023-04-06T14:04:17;100991.22;;;11.14;38.27
40171;BME280;37650;52.790;18.268;2023-04-06T14:07:38;100991.86;;;10.93;38.75
40171;BME280;37650;52.790;18.268;2023-04-06T14:11:01;100990.85;;;10.79;39.50
40171;BME280;37650;52.790;18.268;2023-04-06T14:14:23;100990.30;;;10.67;39.67
40171;BME280;37650;52.790;18.268;2023-04-06T14:17:44;100987.20;;;10.45;40.19
40171;BME280;37650;52.790;18.268;2023-04-06T14:21:06;100983.39;;;10.24;40.80
40171;BME280;37650;52.790;18.268;2023-04-06T14:24:27;100980.64;;;10.01;41.49
40171;BME280;37650;52.790;18.268;2023-04-06T14:27:49;100979.60;;;9.93;42.24
40171;BME280;37650;52.790;18.268;2023-04-06T14:31:12;100973.14;;;9.92;42.64
40171;BME280;37650;52.790;18.268;2023-04-06T14:34:37;100971.43;;;9.76;42.51
40171;BME280;37650;52.790;18.268;2023-04-06T14:37:58;100972.73;;;9.44;42.74
40171;BME280;37650;52.790;18.268;2023-04-06T14:41:22;100974.57;;;9.25;43.26
40171;BME280;37650;52.790;18.268;2023-04-06T14:44:44;100971.30;;;9.21;43.42
40171;BME280;37650;52.790;18.268;2023-04-06T14:48:06;100963.90;;;9.16;43.83
40171;BME280;37650;52.790;18.268;2023-04-06T14:51:27;100966.89;;;9.07;44.12
40171;BME280;37650;52.790;18.268;2023-04-06T14:54:48;100969.35;;;8.91;44.34
40171;BME280;37650;52.790;18.268;2023-04-06T14:58:10;100967.73;;;8.75;44.77
40171;BME280;37650;52.790;18.268;2023-04-06T15:01:34;100970.69;;;8.67;44.90
40171;BME280;37650;52.790;18.268;2023-04-06T15:04:57;100967.30;;;8.44;45.60
40171;BME280;37650;52.790;18.268;2023-04-06T15:08:22;100969.84;;;8.29;46.08
40171;BME280;37650;52.790;18.268;2023-04-06T15:11:43;100971.18;;;8.03;46.66
40171;BME280;37650;52.790;18.268;2023-04-06T15:15:10;100971.40;;;7.88;47.21
40171;BME280;37650;52.790;18.268;2023-04-06T15:18:32;100973.29;;;7.80;47.76
40171;BME280;37650;52.790;18.268;2023-04-06T15:21:56;100967.11;;;7.74;48.04
40171;BME280;37650;52.790;18.268;2023-04-06T15:25:17;100969.08;;;7.72;48.55
40171;BME280;37650;52.790;18.268;2023-04-06T15:28:39;100964.19;;;7.71;48.58
40171;BME280;37650;52.790;18.268;2023-04-06T15:32:00;100969.86;;;7.66;48.77
40171;BME280;37650;52.790;18.268;2023-04-06T15:35:21;100967.73;;;7.56;49.24
40171;BME280;37650;52.790;18.268;2023-04-06T15:38:42;100965.70;;;7.53;49.58
40171;BME280;37650;52.790;18.268;2023-04-06T15:42:04;100966.71;;;7.43;49.90
40171;BME280;37650;52.790;18.268;2023-04-06T15:45:25;100972.30;;;7.19;50.47
40171;BME280;37650;52.790;18.268;2023-04-06T15:48:47;100968.77;;;6.96;51.04
40171;BME280;37650;52.790;18.268;2023-04-06T15:52:09;100969.71;;;6.91;51.58
40171;BME280;37650;52.790;18.268;2023-04-06T15:55:30;100967.95;;;6.78;52.10
40171;BME280;37650;52.790;18.268;2023-04-06T15:58:50;100970.36;;;6.79;52.62
40171;BME280;37650;52.790;18.268;2023-04-06T16:02:18;100970.54;;;6.79;52.72
40171;BME280;37650;52.790;18.268;2023-04-06T16:05:40;100973.85;;;6.65;53.04
40171;BME280;37650;52.790;18.268;2023-04-06T16:09:02;100976.90;;;6.43;53.97
40171;BME280;37650;52.790;18.268;2023-04-06T16:12:23;100974.90;;;6.16;55.45
40171;BME280;37650;52.790;18.268;2023-04-06T16:15:48;100975.79;;;5.95;56.26
40171;BME280;37650;52.790;18.268;2023-04-06T16:19:09;100973.27;;;5.84;57.15
40171;BME280;37650;52.790;18.268;2023-04-06T16:22:31;100972.60;;;5.77;58.35
40171;BME280;37650;52.790;18.268;2023-04-06T16:25:53;100973.91;;;5.66;58.91
40171;BME280;37650;52.790;18.268;2023-04-06T16:29:14;100974.36;;;5.50;59.96
40171;BME280;37650;52.790;18.268;2023-04-06T16:32:36;100976.23;;;5.33;61.02
40171;BME280;37650;52.790;18.268;2023-04-06T16:35:58;100979.78;;;5.18;62.36
40171;BME280;37650;52.790;18.268;2023-04-06T16:39:19;100982.30;;;5.03;62.73
40171;BME280;37650;52.790;18.268;2023-04-06T16:42:43;100981.99;;;4.92;63.93
40171;BME280;37650;52.790;18.268;2023-04-06T16:46:04;100982.75;;;4.78;64.72
40171;BME280;37650;52.790;18.268;2023-04-06T16:49:27;100984.85;;;4.74;65.66
40171;BME280;37650;52.790;18.268;2023-04-06T16:52:49;100988.89;;;4.61;66.63
40171;BME280;37650;52.790;18.268;2023-04-06T16:56:10;100993.46;;;4.47;67.26
40171;BME280;37650;52.790;18.268;2023-04-06T16:59:30;100984.95;;;4.40;67.77
40171;BME280;37650;52.790;18.268;2023-04-06T17:02:53;100981.32;;;4.36;68.43
40171;BME280;37650;52.790;18.268;2023-04-06T17:06:21;100979.43;;;4.32;68.86
40171;BME280;37650;52.790;18.268;2023-04-06T17:09:42;100977.17;;;4.29;69.34
40171;BME280;37650;52.790;18.268;2023-04-06T17:13:03;100976.48;;;4.22;69.59
40171;BME280;37650;52.790;18.268;2023-04-06T17:16:26;100976.66;;;4.21;69.28
40171;BME280;37650;52.790;18.268;2023-04-06T17:19:47;100977.36;;;4.13;69.74
40171;BME280;37650;52.790;18.268;2023-04-06T17:23:09;100979.97;;;4.06;69.75
40171;BME280;37650;52.790;18.268;2023-04-06T17:26:30;100984.84;;;3.99;69.94
40171;BME280;37650;52.790;18.268;2023-04-06T17:29:51;100980.33;;;3.95;70.66
40171;BME280;37650;52.790;18.268;2023-04-06T17:33:13;100979.64;;;3.89;70.61
40171;BME280;37650;52.790;18.268;2023-04-06T17:36:35;100977.56;;;3.84;70.54